Time;durP1;ratioP1;P1;durP2;ratioP2;P2;SDS_P1;SDS_P2;PMS_P1;PMS_P2;Temp;Humidity;BMP_temperature;BMP_pressure;BME280_temperature;BME280_humidity;BME280_pressure;Samples;Min_cycle;Max_cycle;Signal;HPM_P1;HPM_P2
2023/03/04 00:00:19;;;;;;;12.80;2.92;;;5.00;99.90;;;;;;5037611;28;20513;-58
2023/03/04 00:02:45;;;;;;;8.18;1.80;;;5.00;99.90;;;;;;5038953;28;20037;-53
2023/03/04 00:05:11;;;;;;;6.20;1.45;;;5.00;99.90;;;;;;5038330;28;20451;-56
2023/03/04 00:07:36;;;;;;;8.00;2.13;;;5.00;99.90;;;;;;5038670;28;20021;-55
2023/03/04 00:10:03;;;;;;;6.38;1.88;;;5.00;99.90;;;;;;5039440;28;20037;-56
2023/03/04 00:12:29;;;;;;;5.97;2.00;;;5.00;99.90;;;;;;5038675;28;20029;-57
2023/03/04 00:14:54;;;;;;;7.97;2.38;;;5.00;99.90;;;;;;5038067;28;20021;-56
2023/03/04 00:17:20;;;;;;;10.60;3.00;;;5.00;99.90;;;;;;5039969;28;20541;-58
2023/03/04 00:19:46;;;;;;;11.15;2.15;;;5.00;99.90;;;;;;5039673;28;20037;-57
2023/03/04 00:22:11;;;;;;;10.50;1.88;;;5.10;99.90;;;;;;5037293;28;20334;-57
2023/03/04 00:24:37;;;;;;;11.95;2.53;;;5.10;99.90;;;;;;5036531;28;20037;-58
2023/03/04 00:27:02;;;;;;;7.53;1.85;;;5.10;99.90;;;;;;5038175;28;20045;-54
2023/03/04 00:29:28;;;;;;;12.02;2.00;;;5.10;99.90;;;;;;5036890;28;20037;-55
2023/03/04 00:31:53;;;;;;;8.82;1.45;;;5.10;99.90;;;;;;5038958;28;20029;-58
2023/03/04 00:34:20;;;;;;;5.15;1.83;;;5.10;99.90;;;;;;5037561;28;20355;-57
2023/03/04 00:36:45;;;;;;;8.40;2.17;;;5.10;99.90;;;;;;5038195;28;20356;-56
2023/03/04 00:39:11;;;;;;;7.03;1.27;;;5.10;99.90;;;;;;5039468;28;20090;-56
2023/03/04 00:41:37;;;;;;;5.28;1.65;;;5.10;99.90;;;;;;5038762;28;20045;-58
2023/03/04 00:44:04;;;;;;;7.85;1.40;;;5.10;99.90;;;;;;5038301;28;20041;-59
2023/03/04 00:46:30;;;;;;;7.65;1.70;;;5.10;99.90;;;;;;5038704;28;20029;-55
2023/03/04 00:48:55;;;;;;;5.18;0.82;;;5.10;99.90;;;;;;5038542;28;20466;-58
2023/03/04 00:51:21;;;;;;;9.30;1.65;;;5.10;99.90;;;;;;5039900;28;20090;-56
2023/03/04 00:53:46;;;;;;;7.35;1.75;;;5.20;99.90;;;;;;5038000;28;20089;-57
2023/03/04 00:56:12;;;;;;;5.88;1.60;;;5.20;99.90;;;;;;5039028;28;20155;-56
2023/03/04 00:58:39;;;;;;;7.72;1.20;;;5.10;99.90;;;;;;5037791;28;20032;-59
2023/03/04 01:01:05;;;;;;;4.50;1.15;;;5.10;99.90;;;;;;5038814;28;20029;-58
2023/03/04 01:03:31;;;;;;;6.07;1.60;;;5.10;99.90;;;;;;5038490;28;20025;-58
2023/03/04 01:05:58;;;;;;;6.57;1.27;;;5.10;99.90;;;;;;5037752;28;20159;-57
2023/03/04 01:08:23;;;;;;;8.98;2.03;;;5.20;99.90;;;;;;5036770;28;20432;-58
2023/03/04 01:10:49;;;;;;;4.22;1.05;;;5.20;99.90;;;;;;5036619;28;20029;-56
2023/03/04 01:13:15;;;;;;;7.63;1.50;;;5.20;99.90;;;;;;5038381;28;20036;-57
2023/03/04 01:15:40;;;;;;;2.63;1.30;;;5.20;99.90;;;;;;5038604;28;20033;-55
2023/03/04 01:18:06;;;;;;;6.57;1.67;;;5.10;99.90;;;;;;5036899;28;20060;-57
2023/03/04 01:20:31;;;;;;;7.72;2.03;;;5.20;99.90;;;;;;5037775;28;20037;-57
2023/03/04 01:22:57;;;;;;;7.82;1.85;;;5.20;99.90;;;;;;5037341;28;20037;-58
2023/03/04 01:25:23;;;;;;;7.93;1.08;;;5.20;99.90;;;;;;5037851;28;20034;-58
2023/03/04 01:27:48;;;;;;;7.07;1.42;;;5.20;99.90;;;;;;5037399;28;20082;-58
2023/03/04 01:30:14;;;;;;;5.40;1.27;;;5.20;99.90;;;;;;5036875;28;20033;-56
2023/03/04 01:32:40;;;;;;;5.72;1.77;;;5.20;99.90;;;;;;5038489;28;20029;-56
2023/03/04 01:35:06;;;;;;;7.85;2.13;;;5.20;99.90;;;;;;5037721;28;20048;-57
2023/03/04 01:37:31;;;;;;;4.72;1.02;;;5.20;99.90;;;;;;5037382;28;20025;-57
2023/03/04 01:39:57;;;;;;;9.45;1.38;;;5.30;99.90;;;;;;5037250;28;20457;-57
2023/03/04 01:42:25;;;;;;;6.60;1.35;;;5.30;99.90;;;;;;5034027;28;20448;-57
2023/03/04 01:44:51;;;;;;;5.72;1.33;;;5.30;99.90;;;;;;5037830;28;20060;-56
2023/03/04 01:47:18;;;;;;;5.03;1.52;;;5.20;99.90;;;;;;5036150;28;20025;-57
2023/03/04 01:49:49;;;;;;;8.15;1.42;;;5.20;99.90;;;;;;5037331;28;20060;-57
2023/03/04 01:52:15;;;;;;;4.40;0.80;;;5.30;99.90;;;;;;5037551;28;20113;-56
2023/03/04 01:54:40;;;;;;;3.47;1.50;;;5.20;99.90;;;;;;5038045;28;20113;-54
2023/03/04 01:57:17;;;;;;;11.00;1.90;;;5.30;99.90;;;;;;5038165;28;20033;-57
2023/03/04 01:59:43;;;;;;;8.50;1.38;;;5.30;99.90;;;;;;5033649;28;20033;-53
2023/03/04 02:02:09;;;;;;;6.32;1.67;;;5.30;99.90;;;;;;5033706;28;20030;-55
2023/03/04 02:04:35;;;;;;;7.18;1.73;;;5.30;99.90;;;;;;5034659;28;20110;-56
2023/03/04 02:07:02;;;;;;;5.35;1.00;;;5.30;99.90;;;;;;5037205;28;20034;-56
2023/03/04 02:09:30;;;;;;;7.95;1.70;;;5.30;99.90;;;;;;5037888;28;20103;-57
2023/03/04 02:11:56;;;;;;;8.77;1.55;;;5.30;99.90;;;;;;5036514;28;20040;-56
2023/03/04 02:14:22;;;;;;;9.38;2.47;;;5.30;99.90;;;;;;5036548;28;20210;-56
2023/03/04 02:16:49;;;;;;;4.20;1.40;;;5.30;99.90;;;;;;5036298;28;20502;-56
2023/03/04 02:19:59;;;;;;;6.10;1.58;;;5.30;99.90;;;;;;5035092;28;20136;-56
2023/03/04 02:22:24;;;;;;;6.38;1.55;;;5.30;99.90;;;;;;4956661;28;20086;-58
2023/03/04 02:24:58;;;;;;;5.07;1.33;;;5.30;99.90;;;;;;4958006;28;20492;-57
2023/03/04 02:27:23;;;;;;;7.10;1.20;;;5.30;99.90;;;;;;5002705;28;20037;-58
2023/03/04 02:29:49;;;;;;;12.48;2.17;;;5.30;99.90;;;;;;5038594;28;20036;-54
2023/03/04 02:32:15;;;;;;;6.90;2.00;;;5.30;99.90;;;;;;5040885;28;20028;-58
2023/03/04 02:34:49;;;;;;;6.72;1.73;;;5.30;99.90;;;;;;5041262;28;20495;-57
2023/03/04 02:37:17;;;;;;;8.68;1.75;;;5.30;99.90;;;;;;5039943;28;20091;-59
2023/03/04 02:39:44;;;;;;;2.45;1.58;;;5.30;99.90;;;;;;5041009;28;20031;-58
2023/03/04 02:42:11;;;;;;;8.88;1.73;;;5.30;99.90;;;;;;5039265;28;20018;-58
2023/03/04 02:44:44;;;;;;;4.43;1.60;;;5.30;99.90;;;;;;5040547;28;20082;-58
2023/03/04 02:47:11;;;;;;;8.68;2.28;;;5.30;99.90;;;;;;5040480;28;20076;-57
2023/03/04 02:49:39;;;;;;;4.80;2.17;;;5.30;99.90;;;;;;5040596;28;20038;-54
2023/03/04 02:52:06;;;;;;;9.40;2.33;;;5.20;99.90;;;;;;5038736;28;20408;-55
2023/03/04 02:54:32;;;;;;;10.85;2.33;;;5.30;99.90;;;;;;5040850;28;20098;-58
2023/03/04 02:57:02;;;;;;;8.90;2.97;;;5.30;99.90;;;;;;5040780;28;20025;-58
2023/03/04 02:59:28;;;;;;;9.60;2.10;;;5.20;99.90;;;;;;5040273;28;20033;-56
2023/03/04 03:01:54;;;;;;;7.35;2.85;;;5.20;99.90;;;;;;5041298;28;20472;-58
2023/03/04 03:04:21;;;;;;;7.45;2.28;;;5.30;99.90;;;;;;5038031;28;20033;-56
2023/03/04 03:06:46;;;;;;;7.75;1.92;;;5.30;99.90;;;;;;5038503;28;20033;-57
2023/03/04 03:09:12;;;;;;;4.30;1.23;;;5.20;99.90;;;;;;5039875;28;20029;-59
2023/03/04 03:11:37;;;;;;;5.90;1.92;;;5.20;99.90;;;;;;5037972;28;20021;-59
2023/03/04 03:14:03;;;;;;;10.32;2.38;;;5.20;99.90;;;;;;5041221;28;20032;-59
2023/03/04 03:16:29;;;;;;;7.07;1.90;;;5.20;99.90;;;;;;5039790;28;20036;-57
2023/03/04 03:18:55;;;;;;;7.53;1.67;;;5.30;99.90;;;;;;5039857;28;20031;-59
2023/03/04 03:21:20;;;;;;;5.32;1.48;;;5.30;99.90;;;;;;5037838;28;20410;-56
2023/03/04 03:23:46;;;;;;;9.57;2.28;;;5.30;99.90;;;;;;5039509;28;20024;-58
2023/03/04 03:26:12;;;;;;;5.22;1.30;;;5.30;99.90;;;;;;5040942;28;20025;-57
2023/03/04 03:28:37;;;;;;;5.50;1.30;;;5.30;99.90;;;;;;5040644;28;20021;-54
2023/03/04 03:31:03;;;;;;;5.32;1.08;;;5.30;99.90;;;;;;5040342;28;20071;-57
2023/03/04 03:33:29;;;;;;;6.25;1.70;;;5.30;99.90;;;;;;5040001;28;20565;-56
2023/03/04 03:35:54;;;;;;;4.85;1.52;;;5.30;99.90;;;;;;5040176;28;20052;-57
2023/03/04 03:38:20;;;;;;;6.13;1.63;;;5.30;99.90;;;;;;5038726;28;20099;-56
2023/03/04 03:40:45;;;;;;;9.27;1.95;;;5.30;99.90;;;;;;5039417;28;20408;-58
2023/03/04 03:43:11;;;;;;;8.30;2.33;;;5.30;99.90;;;;;;5039565;28;20041;-56
2023/03/04 03:45:37;;;;;;;8.30;1.52;;;5.30;99.90;;;;;;5037476;28;20059;-56
2023/03/04 03:48:03;;;;;;;8.32;1.58;;;5.30;99.90;;;;;;5038244;28;20048;-57
2023/03/04 03:50:28;;;;;;;6.65;2.13;;;5.30;99.90;;;;;;5039663;28;20021;-55
2023/03/04 03:52:54;;;;;;;8.90;1.73;;;5.20;99.90;;;;;;5039582;28;20430;-53
2023/03/04 03:55:21;;;;;;;6.00;1.92;;;5.30;99.90;;;;;;5038646;28;20033;-57
2023/03/04 03:57:47;;;;;;;6.70;2.20;;;5.30;99.90;;;;;;5039242;28;20153;-57
2023/03/04 04:00:14;;;;;;;3.90;1.83;;;5.30;99.90;;;;;;5039238;28;20495;-57
2023/03/04 04:02:39;;;;;;;2.58;1.10;;;5.40;99.90;;;;;;5038218;28;20387;-57
2023/03/04 04:05:06;;;;;;;7.28;1.75;;;5.30;99.90;;;;;;5039206;28;20028;-57
2023/03/04 04:07:32;;;;;;;5.43;1.65;;;5.30;99.90;;;;;;5038822;28;20032;-59
2023/03/04 04:09:57;;;;;;;5.95;1.95;;;5.40;99.90;;;;;;5038306;28;20056;-55
2023/03/04 04:12:23;;;;;;;9.98;2.22;;;5.30;99.90;;;;;;5039489;28;20025;-58
2023/03/04 04:14:48;;;;;;;7.18;1.70;;;5.30;99.90;;;;;;5039129;28;20032;-57
2023/03/04 04:17:15;;;;;;;6.47;1.73;;;5.30;99.90;;;;;;5037815;28;20499;-56
2023/03/04 04:19:40;;;;;;;7.82;1.75;;;5.40;99.90;;;;;;5038355;28;20511;-58
2023/03/04 04:22:12;;;;;;;4.68;1.60;;;5.40;99.90;;;;;;5038323;28;20044;-55
2023/03/04 04:24:37;;;;;;;5.38;1.85;;;5.40;99.90;;;;;;5038774;28;20041;-57
2023/03/04 04:27:03;;;;;;;6.13;1.92;;;5.40;99.90;;;;;;5038434;28;20610;-56
2023/03/04 04:29:29;;;;;;;8.20;2.00;;;5.30;99.90;;;;;;5035366;28;20030;-56
2023/03/04 04:31:54;;;;;;;7.57;1.98;;;5.30;99.90;;;;;;5038872;28;20013;-58
2023/03/04 04:34:20;;;;;;;15.13;2.53;;;5.40;99.90;;;;;;5038963;28;20476;-59
2023/03/04 04:36:46;;;;;;;9.68;1.70;;;5.40;99.90;;;;;;5036188;28;20369;-58
2023/03/04 04:39:11;;;;;;;5.82;1.48;;;5.40;99.90;;;;;;5037726;28;20496;-60
2023/03/04 04:41:39;;;;;;;8.20;2.75;;;5.40;99.90;;;;;;5037515;28;20033;-58
2023/03/04 04:44:05;;;;;;;10.75;2.60;;;5.30;99.90;;;;;;5037699;28;20442;-58
2023/03/04 04:46:31;;;;;;;5.72;2.22;;;5.30;99.90;;;;;;5038314;28;20056;-58
2023/03/04 04:48:57;;;;;;;11.30;1.33;;;5.40;99.90;;;;;;5038484;28;20132;-57
2023/03/04 04:51:22;;;;;;;8.73;2.40;;;5.40;99.90;;;;;;5037329;28;20017;-58
2023/03/04 04:53:49;;;;;;;11.98;2.70;;;5.40;99.90;;;;;;5039048;28;20026;-55
2023/03/04 04:56:18;;;;;;;10.15;2.20;;;5.40;99.90;;;;;;5038917;28;20442;-58
2023/03/04 04:58:44;;;;;;;11.75;2.50;;;5.30;99.90;;;;;;5038091;28;20034;-59
2023/03/04 05:01:10;;;;;;;10.10;1.88;;;5.40;99.90;;;;;;5038523;28;20407;-57
2023/03/04 05:03:37;;;;;;;14.73;3.03;;;5.30;99.90;;;;;;5037274;28;20029;-54
2023/03/04 05:06:04;;;;;;;7.13;1.70;;;5.30;99.90;;;;;;5036651;28;20151;-56
2023/03/04 05:08:30;;;;;;;8.05;1.77;;;5.30;99.90;;;;;;5037370;28;20029;-57
2023/03/04 05:10:56;;;;;;;13.60;2.25;;;5.40;99.90;;;;;;5036442;28;20021;-56
2023/03/04 05:13:21;;;;;;;7.10;2.45;;;5.30;99.90;;;;;;5038149;28;20037;-58
2023/03/04 05:15:49;;;;;;;15.07;2.75;;;5.20;99.90;;;;;;5038965;28;20056;-58
2023/03/04 05:18:15;;;;;;;12.90;3.22;;;5.20;99.90;;;;;;5038471;28;20026;-55
2023/03/04 05:20:40;;;;;;;13.85;3.00;;;5.30;99.90;;;;;;5037363;28;20028;-56
2023/03/04 05:23:06;;;;;;;8.98;2.50;;;5.20;99.90;;;;;;5037130;28;20402;-55
2023/03/04 05:25:31;;;;;;;11.30;3.50;;;5.20;99.90;;;;;;5038250;28;20102;-56
2023/03/04 05:27:57;;;;;;;8.77;2.40;;;5.20;99.90;;;;;;5037734;28;20022;-57
2023/03/04 05:30:22;;;;;;;9.68;2.50;;;5.20;99.90;;;;;;5038082;28;20032;-58
2023/03/04 05:32:48;;;;;;;10.02;2.13;;;5.20;99.90;;;;;;5037713;28;20563;-57
2023/03/04 05:35:13;;;;;;;14.70;2.78;;;5.10;99.90;;;;;;5038286;28;20072;-56
2023/03/04 05:37:39;;;;;;;8.82;2.20;;;5.20;99.90;;;;;;5037873;28;20037;-54
2023/03/04 05:40:05;;;;;;;9.68;2.45;;;5.10;99.90;;;;;;5036949;28;20076;-55
2023/03/04 05:42:31;;;;;;;13.18;2.42;;;5.10;99.90;;;;;;5037864;28;20029;-55
2023/03/04 05:44:56;;;;;;;10.68;2.58;;;5.10;99.90;;;;;;5037404;28;20024;-59
2023/03/04 05:47:22;;;;;;;9.73;2.70;;;5.10;99.90;;;;;;5037022;28;20021;-58
2023/03/04 05:49:47;;;;;;;11.25;2.45;;;5.10;99.90;;;;;;5037435;28;20053;-54
2023/03/04 05:52:13;;;;;;;9.35;2.13;;;5.00;99.90;;;;;;5038297;28;20030;-56
2023/03/04 05:54:38;;;;;;;15.88;3.55;;;5.00;99.90;;;;;;5035474;28;20033;-57
2023/03/04 05:57:04;;;;;;;10.30;2.35;;;5.10;99.90;;;;;;5036948;28;20029;-57
2023/03/04 05:59:30;;;;;;;14.18;4.00;;;5.00;99.90;;;;;;5035794;28;20064;-58
2023/03/04 06:01:55;;;;;;;13.93;3.65;;;5.00;99.90;;;;;;5037914;28;20032;-52
2023/03/04 06:04:21;;;;;;;18.63;3.05;;;5.00;99.90;;;;;;5037490;28;20032;-55
2023/03/04 06:06:47;;;;;;;9.65;3.42;;;5.00;99.90;;;;;;5038455;28;20017;-55
2023/03/04 06:09:13;;;;;;;7.38;3.10;;;5.00;99.90;;;;;;5041677;28;20024;-58
2023/03/04 06:11:39;;;;;;;16.77;3.65;;;5.00;99.90;;;;;;5039624;28;20044;-55
2023/03/04 06:14:05;;;;;;;19.55;3.38;;;5.00;99.90;;;;;;5041184;28;20025;-56
2023/03/04 06:16:30;;;;;;;22.13;4.50;;;5.00;99.90;;;;;;5040042;28;20028;-55
2023/03/04 06:18:56;;;;;;;8.90;2.80;;;5.00;99.90;;;;;;5041992;28;20040;-57
2023/03/04 06:21:22;;;;;;;16.77;3.45;;;5.00;99.90;;;;;;5041553;28;20087;-58
2023/03/04 06:23:47;;;;;;;13.00;3.97;;;5.00;99.90;;;;;;5040651;28;20028;-57
2023/03/04 06:26:14;;;;;;;16.23;2.78;;;4.90;99.90;;;;;;5040242;28;20057;-55
2023/03/04 06:28:43;;;;;;;10.80;2.92;;;4.90;99.90;;;;;;5041630;28;20021;-57
2023/03/04 06:31:08;;;;;;;14.60;2.65;;;4.80;99.90;;;;;;5041902;28;20076;-52
2023/03/04 06:33:34;;;;;;;9.68;2.55;;;4.80;99.90;;;;;;5041523;28;20044;-52
2023/03/04 06:35:59;;;;;;;12.80;2.92;;;4.80;99.90;;;;;;5040983;28;20029;-54
2023/03/04 06:38:25;;;;;;;21.50;3.47;;;4.80;99.90;;;;;;5040586;28;20029;-57
2023/03/04 06:40:51;;;;;;;17.92;4.07;;;4.80;99.90;;;;;;5040580;28;20029;-53
2023/03/04 06:43:17;;;;;;;12.32;2.92;;;4.80;99.90;;;;;;5041512;28;20029;-54
2023/03/04 06:45:42;;;;;;;11.05;3.35;;;4.70;99.90;;;;;;5040344;28;20064;-53
2023/03/04 06:48:08;;;;;;;15.30;4.20;;;4.70;99.90;;;;;;5039755;28;20074;-58
2023/03/04 06:50:33;;;;;;;15.90;3.05;;;4.70;99.90;;;;;;5039790;28;20442;-53
2023/03/04 06:52:59;;;;;;;8.90;2.30;;;4.70;99.90;;;;;;5040356;28;20068;-55
2023/03/04 06:55:25;;;;;;;11.65;2.70;;;4.70;99.90;;;;;;5039554;28;20029;-56
2023/03/04 06:57:50;;;;;;;16.48;3.25;;;4.70;99.90;;;;;;5039967;28;20021;-58
2023/03/04 07:00:17;;;;;;;13.75;2.78;;;4.70;99.90;;;;;;5040552;28;20036;-57
2023/03/04 07:02:42;;;;;;;11.43;2.50;;;4.70;99.90;;;;;;5040135;28;20018;-53
2023/03/04 07:05:10;;;;;;;16.25;2.65;;;4.70;99.90;;;;;;5040012;28;20029;-55
2023/03/04 07:07:36;;;;;;;12.50;2.50;;;4.70;99.90;;;;;;5039608;28;20026;-52
2023/03/04 07:10:01;;;;;;;16.88;2.22;;;4.70;99.90;;;;;;5038182;28;20071;-53
2023/03/04 07:12:27;;;;;;;11.50;2.55;;;4.60;99.90;;;;;;5041318;28;20108;-56
2023/03/04 07:14:52;;;;;;;13.15;2.97;;;4.70;99.90;;;;;;5039529;28;20050;-55
2023/03/04 07:17:18;;;;;;;8.13;2.10;;;4.60;99.90;;;;;;5040629;28;20060;-55
2023/03/04 07:19:43;;;;;;;13.48;2.38;;;4.70;99.90;;;;;;5040109;28;20451;-54
2023/03/04 07:22:09;;;;;;;15.30;2.95;;;4.70;99.90;;;;;;5040845;28;20043;-56
2023/03/04 07:24:35;;;;;;;11.25;2.22;;;4.60;99.90;;;;;;5038649;28;20505;-56
2023/03/04 07:27:00;;;;;;;13.07;2.17;;;4.60;99.90;;;;;;5040068;28;20033;-56
2023/03/04 07:29:26;;;;;;;12.93;2.53;;;4.60;99.90;;;;;;5040697;28;20021;-57
2023/03/04 07:31:51;;;;;;;9.63;2.70;;;4.60;99.90;;;;;;5041433;28;20022;-57
2023/03/04 07:34:17;;;;;;;14.10;2.38;;;4.70;99.90;;;;;;5038921;28;20029;-57
2023/03/04 07:36:43;;;;;;;19.85;2.83;;;4.70;99.90;;;;;;5038694;28;20036;-53
2023/03/04 07:39:11;;;;;;;11.15;3.50;;;4.70;99.90;;;;;;5040019;28;20025;-56
2023/03/04 07:41:38;;;;;;;8.57;2.60;;;4.60;99.90;;;;;;5040057;28;20471;-53
2023/03/04 07:44:04;;;;;;;19.67;3.20;;;4.60;99.90;;;;;;5039309;28;20040;-57
2023/03/04 07:46:30;;;;;;;21.40;3.72;;;4.70;99.90;;;;;;5038180;28;20116;-56
2023/03/04 07:48:56;;;;;;;11.80;3.38;;;4.60;99.90;;;;;;5039519;28;20104;-55
2023/03/04 07:51:23;;;;;;;16.63;4.40;;;4.60;99.90;;;;;;5040071;28;20025;-55
2023/03/04 07:53:52;;;;;;;12.75;3.05;;;4.60;99.90;;;;;;5039521;28;20487;-57
2023/03/04 07:56:20;;;;;;;13.15;3.70;;;4.70;99.90;;;;;;5038938;28;20059;-53
2023/03/04 07:58:46;;;;;;;14.85;3.65;;;4.60;99.90;;;;;;5037372;28;20041;-52
2023/03/04 08:01:17;;;;;;;9.05;2.72;;;4.60;99.90;;;;;;5039387;28;20032;-56
2023/03/04 08:03:43;;;;;;;16.05;3.30;;;4.70;99.90;;;;;;5040130;28;20021;-54
2023/03/04 08:06:11;;;;;;;13.32;3.40;;;4.70;99.90;;;;;;5038446;28;20036;-55
2023/03/04 08:08:37;;;;;;;16.45;4.07;;;4.70;99.90;;;;;;5039139;28;20021;-55
2023/03/04 08:11:07;;;;;;;16.23;4.40;;;4.70;99.90;;;;;;5039373;28;20021;-54
2023/03/04 08:13:34;;;;;;;15.00;3.72;;;4.70;99.90;;;;;;5039798;28;20083;-55
2023/03/04 08:15:59;;;;;;;14.60;3.38;;;4.70;99.90;;;;;;5039179;28;20515;-57
2023/03/04 08:18:25;;;;;;;10.48;3.70;;;4.70;99.90;;;;;;5054537;28;20029;-54
2023/03/04 08:20:51;;;;;;;13.57;3.97;;;4.70;99.90;;;;;;5037276;28;20057;-57
2023/03/04 08:23:17;;;;;;;15.07;2.95;;;4.70;99.90;;;;;;5038155;28;20028;-57
2023/03/04 08:25:43;;;;;;;15.02;4.07;;;4.70;99.90;;;;;;5038632;28;20067;-56
2023/03/04 08:28:09;;;;;;;13.85;3.75;;;4.70;99.90;;;;;;5038491;28;20430;-52
2023/03/04 08:30:35;;;;;;;26.83;4.85;;;4.70;99.90;;;;;;5038874;28;20021;-53
2023/03/04 08:33:02;;;;;;;18.48;4.05;;;4.70;99.90;;;;;;5036986;28;20021;-55
2023/03/04 08:35:28;;;;;;;16.42;4.25;;;4.70;99.90;;;;;;5034357;28;20041;-54
2023/03/04 08:37:54;;;;;;;12.15;3.10;;;4.70;99.90;;;;;;5035442;28;20368;-53
2023/03/04 08:40:19;;;;;;;20.98;4.78;;;4.70;99.90;;;;;;5036880;28;20361;-53
2023/03/04 08:42:45;;;;;;;21.27;3.22;;;4.70;99.90;;;;;;5038218;28;20067;-53
2023/03/04 08:45:11;;;;;;;19.17;4.07;;;4.70;99.90;;;;;;5038839;28;20029;-52
2023/03/04 08:47:37;;;;;;;18.88;3.88;;;4.70;99.90;;;;;;5038513;28;20020;-52
2023/03/04 08:50:04;;;;;;;13.43;3.30;;;4.70;99.90;;;;;;5038083;28;20499;-57
2023/03/04 08:52:31;;;;;;;19.70;3.95;;;4.80;99.90;;;;;;5037775;28;20059;-55
2023/03/04 08:54:57;;;;;;;20.95;4.60;;;4.80;99.90;;;;;;5039242;28;20535;-54
2023/03/04 08:57:22;;;;;;;25.05;4.10;;;4.80;99.90;;;;;;5038731;28;20041;-53
2023/03/04 08:59:48;;;;;;;17.35;3.92;;;4.80;99.90;;;;;;5038454;28;20028;-53
2023/03/04 09:02:14;;;;;;;17.77;3.63;;;4.70;99.90;;;;;;5038935;28;20048;-57
2023/03/04 09:04:40;;;;;;;16.92;3.20;;;4.70;99.90;;;;;;5039070;28;20202;-54
2023/03/04 09:07:06;;;;;;;15.55;3.67;;;4.70;99.90;;;;;;5038656;28;20021;-56
2023/03/04 09:09:32;;;;;;;17.42;3.65;;;4.70;99.90;;;;;;5037836;28;20071;-53
2023/03/04 09:11:57;;;;;;;10.38;3.30;;;4.70;99.90;;;;;;5039213;28;20039;-57
2023/03/04 09:14:23;;;;;;;10.75;3.58;;;4.70;99.90;;;;;;5038914;28;20028;-52
2023/03/04 09:16:48;;;;;;;16.08;3.10;;;4.70;99.90;;;;;;5038515;28;20016;-57
2023/03/04 09:19:14;;;;;;;15.52;4.18;;;4.80;99.90;;;;;;5036833;28;20029;-53
2023/03/04 09:21:39;;;;;;;15.43;3.85;;;4.80;99.90;;;;;;5038558;28;20086;-56
2023/03/04 09:24:05;;;;;;;17.58;3.75;;;4.80;99.90;;;;;;5038167;28;20030;-55
2023/03/04 09:26:31;;;;;;;12.65;3.05;;;4.80;99.90;;;;;;5037963;28;20104;-57
2023/03/04 09:28:58;;;;;;;10.45;2.63;;;4.80;99.90;;;;;;5036406;28;20502;-57
2023/03/04 09:31:26;;;;;;;15.73;3.80;;;4.80;99.90;;;;;;5037392;28;20029;-56
2023/03/04 09:33:52;;;;;;;14.00;3.95;;;4.80;99.90;;;;;;5037766;28;20028;-55
2023/03/04 09:36:18;;;;;;;19.92;4.38;;;4.80;99.90;;;;;;5037798;28;20044;-57
2023/03/04 09:38:44;;;;;;;17.85;4.57;;;4.80;99.90;;;;;;5036803;28;20037;-58
2023/03/04 09:41:17;;;;;;;15.27;3.78;;;4.80;99.90;;;;;;5038135;28;20041;-55
2023/03/04 09:43:44;;;;;;;18.83;4.35;;;4.80;99.90;;;;;;5038314;28;20033;-57
2023/03/04 09:46:30;;;;;;;15.63;4.93;;;4.90;99.90;;;;;;5036163;28;20026;-54
2023/03/04 09:48:56;;;;;;;14.93;4.97;;;4.80;99.90;;;;;;5037015;28;20032;-55
2023/03/04 09:51:40;;;;;;;10.13;4.18;;;4.80;99.90;;;;;;5037928;28;20021;-57
2023/03/04 09:54:10;;;;;;;18.77;4.57;;;4.80;99.90;;;;;;5037919;28;20074;-57
2023/03/04 09:56:37;;;;;;;19.88;5.53;;;4.90;99.90;;;;;;5038187;28;20028;-58
2023/03/04 09:59:31;;;;;;;16.10;4.03;;;4.90;99.90;;;;;;5037762;28;20037;-57
2023/03/04 10:02:02;;;;;;;15.50;4.35;;;4.90;99.90;;;;;;5037509;28;20017;-55
2023/03/04 10:04:34;;;;;;;14.40;3.92;;;5.00;99.90;;;;;;5037421;28;20025;-57
2023/03/04 10:07:01;;;;;;;12.82;4.07;;;5.00;99.90;;;;;;5037869;28;20013;-55
2023/03/04 10:09:54;;;;;;;20.90;5.75;;;5.00;99.90;;;;;;5036998;28;20151;-56
2023/03/04 10:12:24;;;;;;;9.60;3.13;;;5.10;99.90;;;;;;5029181;28;20258;-54
2023/03/04 10:15:25;;;;;;;17.38;4.78;;;5.20;99.90;;;;;;5037941;28;20024;-53
2023/03/04 10:18:00;;;;;;;13.65;3.83;;;5.30;99.90;;;;;;5037544;28;20101;-57
2023/03/04 10:20:51;;;;;;;14.80;4.20;;;5.30;99.90;;;;;;5037307;28;20032;-55
2023/03/04 10:23:23;;;;;;;13.57;3.92;;;5.20;99.90;;;;;;5038084;28;20076;-56
2023/03/04 10:25:52;;;;;;;15.15;4.30;;;5.20;99.90;;;;;;5037161;28;20480;-54
2023/03/04 10:28:23;;;;;;;16.88;3.72;;;5.30;99.90;;;;;;5035077;28;20032;-56
2023/03/04 10:30:57;;;;;;;14.32;4.20;;;5.30;99.90;;;;;;5035919;28;20025;-55
2023/03/04 10:33:34;;;;;;;17.65;4.95;;;5.40;99.90;;;;;;5036979;28;20088;-59
2023/03/04 10:36:04;;;;;;;18.13;3.55;;;5.40;99.90;;;;;;5033627;28;20048;-57
2023/03/04 10:38:35;;;;;;;14.48;3.60;;;5.40;99.90;;;;;;5035951;28;20121;-55
2023/03/04 10:41:01;;;;;;;17.75;4.80;;;5.40;99.90;;;;;;5036130;28;20108;-52
2023/03/04 10:43:27;;;;;;;18.70;4.72;;;5.50;99.90;;;;;;5037323;28;20117;-57
2023/03/04 10:46:00;;;;;;;24.27;3.80;;;5.50;99.90;;;;;;5034214;28;20116;-54
2023/03/04 10:48:29;;;;;;;16.67;3.08;;;5.60;99.90;;;;;;5031716;28;20017;-58
2023/03/04 10:51:09;;;;;;;11.50;3.17;;;5.60;99.90;;;;;;5037861;28;20021;-54
2023/03/04 10:53:40;;;;;;;14.40;3.92;;;5.60;99.90;;;;;;5039265;28;20052;-54
2023/03/04 10:56:36;;;;;;;14.73;3.15;;;5.70;99.90;;;;;;5039878;28;20029;-55
2023/03/04 10:59:39;;;;;;;14.18;3.65;;;5.70;99.90;;;;;;5037315;28;20121;-55
2023/03/04 11:02:15;;;;;;;16.17;3.65;;;5.70;99.90;;;;;;5038592;28;20029;-58
2023/03/04 11:04:41;;;;;;;16.50;4.15;;;5.70;99.90;;;;;;5040357;28;20513;-54
2023/03/04 11:07:10;;;;;;;15.10;2.72;;;5.70;99.90;;;;;;5037253;28;20029;-56
2023/03/04 11:09:36;;;;;;;16.35;4.15;;;5.80;99.90;;;;;;5037505;28;20032;-57
2023/03/04 11:12:09;;;;;;;14.20;3.47;;;5.80;99.90;;;;;;5040371;28;20426;-53
2023/03/04 11:14:36;;;;;;;13.43;3.17;;;5.90;99.90;;;;;;5038600;28;20021;-56
2023/03/04 11:17:25;;;;;;;13.13;3.45;;;5.90;99.90;;;;;;5039819;28;20514;-56
2023/03/04 11:20:01;;;;;;;15.90;3.80;;;5.80;99.90;;;;;;5038653;28;20025;-56
2023/03/04 11:22:29;;;;;;;13.05;3.28;;;5.70;99.90;;;;;;5038602;28;20201;-56
2023/03/04 11:25:00;;;;;;;11.63;3.85;;;5.80;99.90;;;;;;5037447;28;20128;-56
2023/03/04 11:27:59;;;;;;;15.70;3.33;;;5.90;99.90;;;;;;5039318;28;20073;-56
2023/03/04 11:30:33;;;;;;;13.88;4.10;;;6.10;99.90;;;;;;5035767;28;20068;-55
2023/03/04 11:33:31;;;;;;;12.50;3.75;;;6.20;99.90;;;;;;5039216;28;20031;-55
2023/03/04 11:36:37;;;;;;;17.52;3.47;;;6.30;99.90;;;;;;5004914;28;20484;-58
2023/03/04 11:39:28;;;;;;;7.50;2.67;;;6.50;99.90;;;;;;5039342;28;20483;-56
2023/03/04 11:42:01;;;;;;;15.55;2.63;;;6.70;99.90;;;;;;5038337;28;20427;-56
2023/03/04 11:44:28;;;;;;;10.10;2.45;;;6.90;99.90;;;;;;5036531;28;20026;-56
2023/03/04 11:47:28;;;;;;;20.00;4.72;;;7.00;99.90;;;;;;5039454;28;20072;-54
2023/03/04 11:49:59;;;;;;;14.70;3.67;;;7.10;99.90;;;;;;5034065;28;20083;-55
2023/03/04 11:52:35;;;;;;;14.00;4.07;;;7.10;99.90;;;;;;5037729;28;20025;-57
2023/03/04 11:55:12;;;;;;;11.70;2.40;;;7.00;99.90;;;;;;5038382;28;20057;-53
2023/03/04 11:58:02;;;;;;;11.43;3.45;;;6.80;99.90;;;;;;5038959;28;20705;-59
2023/03/04 12:01:14;;;;;;;11.13;2.67;;;6.70;99.90;;;;;;5037433;28;20021;-58
2023/03/04 12:03:42;;;;;;;9.13;2.38;;;6.60;99.90;;;;;;5005768;28;20425;-56
2023/03/04 12:06:08;;;;;;;13.98;2.85;;;6.60;99.90;;;;;;5034474;28;20048;-56
2023/03/04 12:08:48;;;;;;;13.43;3.17;;;6.50;99.90;;;;;;5037977;28;20369;-54
2023/03/04 12:11:27;;;;;;;14.50;3.15;;;6.60;99.90;;;;;;5038342;28;20456;-57
2023/03/04 12:14:10;;;;;;;9.73;2.40;;;6.60;99.90;;;;;;5039231;28;20021;-57
2023/03/04 12:17:11;;;;;;;14.68;3.58;;;6.70;99.90;;;;;;5038279;28;20032;-54
2023/03/04 12:20:05;;;;;;;8.73;2.47;;;6.70;99.90;;;;;;5037192;28;20111;-54
2023/03/04 12:22:43;;;;;;;11.43;2.22;;;6.60;99.90;;;;;;5037984;28;20065;-54
2023/03/04 12:25:25;;;;;;;6.55;1.92;;;6.50;99.90;;;;;;5037936;28;20029;-57
2023/03/04 12:28:09;;;;;;;10.63;2.60;;;6.50;99.90;;;;;;5038939;28;20032;-56
2023/03/04 12:30:46;;;;;;;13.95;2.90;;;6.40;99.90;;;;;;5038467;28;20407;-53
2023/03/04 12:33:37;;;;;;;9.23;2.10;;;6.40;99.90;;;;;;5038952;28;20025;-56
2023/03/04 12:36:25;;;;;;;16.50;4.03;;;6.40;99.90;;;;;;5037443;28;20563;-54
2023/03/04 12:39:03;;;;;;;8.70;2.10;;;6.40;99.90;;;;;;5038216;28;20492;-57
2023/03/04 12:41:41;;;;;;;12.95;3.47;;;6.50;99.90;;;;;;5037316;28;20090;-56
2023/03/04 12:44:16;;;;;;;12.30;3.72;;;6.60;99.90;;;;;;5037833;28;20503;-57
2023/03/04 12:47:10;;;;;;;7.05;2.42;;;6.80;99.90;;;;;;5037069;28;20371;-56
2023/03/04 12:49:41;;;;;;;13.80;2.65;;;7.00;99.90;;;;;;5038342;28;20045;-54
2023/03/04 12:52:14;;;;;;;10.82;2.30;;;7.00;99.90;;;;;;5038086;28;20028;-53
2023/03/04 12:54:44;;;;;;;10.85;2.90;;;7.00;99.90;;;;;;5035563;28;20022;-58
2023/03/04 12:57:12;;;;;;;14.20;3.13;;;7.00;99.90;;;;;;5036946;28;20044;-54
2023/03/04 12:59:48;;;;;;;14.85;3.22;;;6.90;99.90;;;;;;5036507;28;20029;-53